sensor_id;sensor_type;location;lat;lon;timestamp;P1;durP1;ratioP1;P2;durP2;ratioP2
13941;SDS011;7043;51.630;7.254;2023-07-29T00:00:23;4.85;;;4.43;;
13941;SDS011;7043;51.630;7.254;2023-07-29T00:02:49;6.70;;;5.00;;
13941;SDS011;7043;51.630;7.254;2023-07-29T00:05:15;5.82;;;5.15;;
13941;SDS011;7043;51.630;7.254;2023-07-29T00:07:41;6.35;;;5.40;;
13941;SDS011;7043;51.630;7.254;2023-07-29T00:10:07;6.40;;;5.80;;
13941;SDS011;7043;51.630;7.254;2023-07-29T00:12:33;5.68;;;5.13;;
13941;SDS011;7043;51.630;7.254;2023-07-29T00:14:59;6.25;;;5.65;;
13941;SDS011;7043;51.630;7.254;2023-07-29T00:17:25;7.00;;;5.63;;
13941;SDS011;7043;51.630;7.254;2023-07-29T00:19:51;5.35;;;4.75;;
13941;SDS011;7043;51.630;7.254;2023-07-29T00:22:17;5.88;;;4.53;;
13941;SDS011;7043;51.630;7.254;2023-07-29T00:24:43;5.53;;;4.90;;
13941;SDS011;7043;51.630;7.254;2023-07-29T00:27:09;5.22;;;4.82;;
13941;SDS011;7043;51.630;7.254;2023-07-29T00:29:35;8.27;;;5.20;;
13941;SDS011;7043;51.630;7.254;2023-07-29T00:32:01;5.75;;;5.20;;
13941;SDS011;7043;51.630;7.254;2023-07-29T00:34:27;8.32;;;5.85;;
13941;SDS011;7043;51.630;7.254;2023-07-29T00:36:53;7.20;;;5.55;;
13941;SDS011;7043;51.630;7.254;2023-07-29T00:39:19;6.60;;;4.97;;
13941;SDS011;7043;51.630;7.254;2023-07-29T00:41:45;6.30;;;4.90;;
13941;SDS011;7043;51.630;7.254;2023-07-29T00:44:11;4.70;;;4.30;;
13941;SDS011;7043;51.630;7.254;2023-07-29T00:46:37;5.05;;;4.53;;
13941;SDS011;7043;51.630;7.254;2023-07-29T00:49:04;7.80;;;4.43;;
13941;SDS011;7043;51.630;7.254;2023-07-29T00:51:30;5.88;;;5.00;;
13941;SDS011;7043;51.630;7.254;2023-07-29T00:53:56;5.45;;;4.63;;
13941;SDS011;7043;51.630;7.254;2023-07-29T00:56:22;5.90;;;4.63;;
13941;SDS011;7043;51.630;7.254;2023-07-29T00:58:48;5.97;;;5.43;;
13941;SDS011;7043;51.630;7.254;2023-07-29T01:01:14;5.38;;;4.88;;
13941;SDS011;7043;51.630;7.254;2023-07-29T01:03:40;5.78;;;5.03;;
13941;SDS011;7043;51.630;7.254;2023-07-29T01:19:05;5.65;;;5.05;;
13941;SDS011;7043;51.630;7.254;2023-07-29T01:21:35;7.28;;;5.72;;
13941;SDS011;7043;51.630;7.254;2023-07-29T01:24:01;6.32;;;5.72;;
13941;SDS011;7043;51.630;7.254;2023-07-29T01:26:27;6.55;;;5.95;;
13941;SDS011;7043;51.630;7.254;2023-07-29T01:28:54;6.10;;;5.60;;
13941;SDS011;7043;51.630;7.254;2023-07-29T01:31:23;6.40;;;5.80;;
13941;SDS011;7043;51.630;7.254;2023-07-29T01:33:58;5.60;;;5.10;;
13941;SDS011;7043;51.630;7.254;2023-07-29T01:36:26;6.35;;;5.00;;
13941;SDS011;7043;51.630;7.254;2023-07-29T01:38:53;5.82;;;5.20;;
13941;SDS011;7043;51.630;7.254;2023-07-29T01:41:20;5.55;;;5.05;;
13941;SDS011;7043;51.630;7.254;2023-07-29T01:43:47;5.97;;;4.93;;
13941;SDS011;7043;51.630;7.254;2023-07-29T01:46:14;5.95;;;5.35;;
13941;SDS011;7043;51.630;7.254;2023-07-29T01:48:40;7.68;;;4.95;;
13941;SDS011;7043;51.630;7.254;2023-07-29T01:51:06;5.45;;;4.90;;
13941;SDS011;7043;51.630;7.254;2023-07-29T01:53:32;5.35;;;4.85;;
13941;SDS011;7043;51.630;7.254;2023-07-29T01:55:58;4.95;;;4.60;;
13941;SDS011;7043;51.630;7.254;2023-07-29T01:58:24;5.32;;;4.88;;
13941;SDS011;7043;51.630;7.254;2023-07-29T02:00:50;5.63;;;5.10;;
13941;SDS011;7043;51.630;7.254;2023-07-29T02:03:16;6.95;;;5.72;;
13941;SDS011;7043;51.630;7.254;2023-07-29T02:05:43;6.82;;;5.20;;
13941;SDS011;7043;51.630;7.254;2023-07-29T02:08:09;5.07;;;4.68;;
13941;SDS011;7043;51.630;7.254;2023-07-29T02:10:35;6.53;;;5.88;;
13941;SDS011;7043;51.630;7.254;2023-07-29T02:13:02;9.60;;;6.30;;
13941;SDS011;7043;51.630;7.254;2023-07-29T02:15:28;6.07;;;5.25;;
13941;SDS011;7043;51.630;7.254;2023-07-29T02:17:54;7.32;;;6.00;;
13941;SDS011;7043;51.630;7.254;2023-07-29T02:20:20;6.85;;;6.22;;
13941;SDS011;7043;51.630;7.254;2023-07-29T02:22:46;6.85;;;6.25;;
13941;SDS011;7043;51.630;7.254;2023-07-29T02:25:13;6.18;;;5.68;;
13941;SDS011;7043;51.630;7.254;2023-07-29T02:27:40;6.90;;;6.22;;
13941;SDS011;7043;51.630;7.254;2023-07-29T02:30:06;6.95;;;6.30;;
13941;SDS011;7043;51.630;7.254;2023-07-29T02:32:34;6.68;;;6.10;;
13941;SDS011;7043;51.630;7.254;2023-07-29T02:35:00;7.72;;;6.80;;
13941;SDS011;7043;51.630;7.254;2023-07-29T02:37:26;6.80;;;6.10;;
13941;SDS011;7043;51.630;7.254;2023-07-29T02:39:52;8.90;;;7.47;;
13941;SDS011;7043;51.630;7.254;2023-07-29T02:42:18;7.15;;;6.40;;
13941;SDS011;7043;51.630;7.254;2023-07-29T02:44:44;7.32;;;6.57;;
13941;SDS011;7043;51.630;7.254;2023-07-29T02:47:10;7.07;;;6.38;;
13941;SDS011;7043;51.630;7.254;2023-07-29T02:49:36;9.25;;;7.15;;
13941;SDS011;7043;51.630;7.254;2023-07-29T02:52:02;7.53;;;6.80;;
13941;SDS011;7043;51.630;7.254;2023-07-29T02:54:28;8.05;;;7.25;;
13941;SDS011;7043;51.630;7.254;2023-07-29T02:56:54;7.35;;;6.75;;
13941;SDS011;7043;51.630;7.254;2023-07-29T02:59:20;8.57;;;7.05;;
13941;SDS011;7043;51.630;7.254;2023-07-29T03:01:46;6.60;;;6.00;;
13941;SDS011;7043;51.630;7.254;2023-07-29T03:04:12;6.88;;;6.30;;
13941;SDS011;7043;51.630;7.254;2023-07-29T03:06:38;6.78;;;6.15;;
13941;SDS011;7043;51.630;7.254;2023-07-29T03:09:04;6.95;;;6.25;;
13941;SDS011;7043;51.630;7.254;2023-07-29T03:11:30;7.47;;;6.70;;
13941;SDS011;7043;51.630;7.254;2023-07-29T03:13:56;6.88;;;6.25;;
13941;SDS011;7043;51.630;7.254;2023-07-29T03:16:22;7.72;;;6.93;;
13941;SDS011;7043;51.630;7.254;2023-07-29T03:18:48;7.07;;;6.40;;
13941;SDS011;7043;51.630;7.254;2023-07-29T03:21:15;6.82;;;6.22;;
13941;SDS011;7043;51.630;7.254;2023-07-29T03:23:41;8.80;;;6.10;;
13941;SDS011;7043;51.630;7.254;2023-07-29T03:26:07;6.50;;;5.90;;
13941;SDS011;7043;51.630;7.254;2023-07-29T03:28:39;7.40;;;6.70;;
13941;SDS011;7043;51.630;7.254;2023-07-29T03:31:06;7.50;;;6.82;;
13941;SDS011;7043;51.630;7.254;2023-07-29T03:33:32;7.60;;;6.25;;
13941;SDS011;7043;51.630;7.254;2023-07-29T03:35:58;7.00;;;6.40;;
13941;SDS011;7043;51.630;7.254;2023-07-29T03:38:24;7.50;;;6.78;;
13941;SDS011;7043;51.630;7.254;2023-07-29T03:40:50;7.63;;;6.88;;
13941;SDS011;7043;51.630;7.254;2023-07-29T03:43:16;6.80;;;6.18;;
13941;SDS011;7043;51.630;7.254;2023-07-29T03:45:42;10.02;;;6.93;;
13941;SDS011;7043;51.630;7.254;2023-07-29T03:48:08;7.57;;;6.78;;
13941;SDS011;7043;51.630;7.254;2023-07-29T03:50:35;6.80;;;6.20;;
13941;SDS011;7043;51.630;7.254;2023-07-29T03:53:01;9.43;;;6.60;;
13941;SDS011;7043;51.630;7.254;2023-07-29T03:55:27;7.07;;;6.38;;
13941;SDS011;7043;51.630;7.254;2023-07-29T03:57:57;6.55;;;6.05;;
13941;SDS011;7043;51.630;7.254;2023-07-29T04:00:23;6.85;;;6.25;;
13941;SDS011;7043;51.630;7.254;2023-07-29T04:02:49;6.85;;;6.15;;
13941;SDS011;7043;51.630;7.254;2023-07-29T04:05:15;7.25;;;6.55;;
13941;SDS011;7043;51.630;7.254;2023-07-29T04:07:41;7.72;;;6.35;;
13941;SDS011;7043;51.630;7.254;2023-07-29T04:10:08;8.05;;;7.03;;
13941;SDS011;7043;51.630;7.254;2023-07-29T04:12:34;7.15;;;6.45;;
13941;SDS011;7043;51.630;7.254;2023-07-29T04:15:00;7.57;;;6.88;;
13941;SDS011;7043;51.630;7.254;2023-07-29T04:17:26;8.07;;;6.80;;
13941;SDS011;7043;51.630;7.254;2023-07-29T04:19:52;7.50;;;6.85;;
13941;SDS011;7043;51.630;7.254;2023-07-29T04:22:18;8.85;;;8.05;;
13941;SDS011;7043;51.630;7.254;2023-07-29T04:24:44;8.52;;;7.78;;
13941;SDS011;7043;51.630;7.254;2023-07-29T04:27:10;8.55;;;7.85;;
13941;SDS011;7043;51.630;7.254;2023-07-29T04:29:36;9.27;;;8.48;;
13941;SDS011;7043;51.630;7.254;2023-07-29T04:32:02;9.85;;;9.05;;
13941;SDS011;7043;51.630;7.254;2023-07-29T04:34:28;8.70;;;7.90;;
13941;SDS011;7043;51.630;7.254;2023-07-29T04:36:54;9.40;;;8.43;;
13941;SDS011;7043;51.630;7.254;2023-07-29T04:39:20;9.98;;;8.70;;
13941;SDS011;7043;51.630;7.254;2023-07-29T04:41:49;9.65;;;8.88;;
13941;SDS011;7043;51.630;7.254;2023-07-29T04:44:16;11.05;;;8.85;;
13941;SDS011;7043;51.630;7.254;2023-07-29T04:46:42;9.23;;;8.43;;
13941;SDS011;7043;51.630;7.254;2023-07-29T04:49:08;10.18;;;9.30;;
13941;SDS011;7043;51.630;7.254;2023-07-29T04:51:34;10.05;;;9.27;;
13941;SDS011;7043;51.630;7.254;2023-07-29T04:54:00;10.52;;;9.52;;
13941;SDS011;7043;51.630;7.254;2023-07-29T04:56:26;10.13;;;9.23;;
13941;SDS011;7043;51.630;7.254;2023-07-29T04:58:51;10.63;;;9.57;;
13941;SDS011;7043;51.630;7.254;2023-07-29T05:01:18;11.95;;;9.02;;
13941;SDS011;7043;51.630;7.254;2023-07-29T05:03:44;9.98;;;8.98;;
13941;SDS011;7043;51.630;7.254;2023-07-29T05:06:10;9.13;;;8.27;;
13941;SDS011;7043;51.630;7.254;2023-07-29T05:08:37;8.90;;;7.53;;
13941;SDS011;7043;51.630;7.254;2023-07-29T05:11:03;7.13;;;6.43;;
13941;SDS011;7043;51.630;7.254;2023-07-29T05:13:29;6.47;;;5.82;;
13941;SDS011;7043;51.630;7.254;2023-07-29T05:15:55;5.95;;;5.40;;
13941;SDS011;7043;51.630;7.254;2023-07-29T05:18:21;5.72;;;5.30;;
13941;SDS011;7043;51.630;7.254;2023-07-29T05:20:47;6.45;;;5.85;;
13941;SDS011;7043;51.630;7.254;2023-07-29T05:23:13;6.72;;;5.60;;
13941;SDS011;7043;51.630;7.254;2023-07-29T05:25:39;6.88;;;6.22;;
13941;SDS011;7043;51.630;7.254;2023-07-29T05:28:05;6.80;;;6.10;;
13941;SDS011;7043;51.630;7.254;2023-07-29T05:30:32;7.30;;;6.60;;
13941;SDS011;7043;51.630;7.254;2023-07-29T05:32:59;10.02;;;6.80;;
13941;SDS011;7043;51.630;7.254;2023-07-29T05:35:26;8.95;;;7.28;;
13941;SDS011;7043;51.630;7.254;2023-07-29T05:37:52;7.10;;;6.50;;
13941;SDS011;7043;51.630;7.254;2023-07-29T05:40:18;8.10;;;7.30;;
13941;SDS011;7043;51.630;7.254;2023-07-29T05:42:44;8.25;;;7.30;;
13941;SDS011;7043;51.630;7.254;2023-07-29T05:45:10;9.10;;;8.30;;
13941;SDS011;7043;51.630;7.254;2023-07-29T05:47:36;8.52;;;7.70;;
13941;SDS011;7043;51.630;7.254;2023-07-29T05:50:03;11.27;;;8.48;;
13941;SDS011;7043;51.630;7.254;2023-07-29T05:52:30;10.88;;;8.40;;
13941;SDS011;7043;51.630;7.254;2023-07-29T05:54:56;9.00;;;7.68;;
13941;SDS011;7043;51.630;7.254;2023-07-29T05:57:22;9.00;;;8.10;;
13941;SDS011;7043;51.630;7.254;2023-07-29T05:59:48;9.40;;;8.20;;
13941;SDS011;7043;51.630;7.254;2023-07-29T06:02:14;10.13;;;8.05;;
13941;SDS011;7043;51.630;7.254;2023-07-29T06:04:40;8.98;;;7.97;;
13941;SDS011;7043;51.630;7.254;2023-07-29T06:07:06;9.57;;;8.05;;
13941;SDS011;7043;51.630;7.254;2023-07-29T06:09:32;8.68;;;7.85;;
13941;SDS011;7043;51.630;7.254;2023-07-29T06:11:58;8.83;;;7.93;;
13941;SDS011;7043;51.630;7.254;2023-07-29T06:14:24;8.00;;;7.30;;
13941;SDS011;7043;51.630;7.254;2023-07-29T06:16:50;8.57;;;7.78;;
13941;SDS011;7043;51.630;7.254;2023-07-29T06:19:17;9.00;;;7.43;;
13941;SDS011;7043;51.630;7.254;2023-07-29T06:21:43;8.80;;;7.85;;
13941;SDS011;7043;51.630;7.254;2023-07-29T06:24:09;9.03;;;8.00;;
13941;SDS011;7043;51.630;7.254;2023-07-29T06:26:35;8.05;;;7.25;;
13941;SDS011;7043;51.630;7.254;2023-07-29T06:29:01;8.60;;;6.75;;
13941;SDS011;7043;51.630;7.254;2023-07-29T06:31:27;6.60;;;5.90;;
13941;SDS011;7043;51.630;7.254;2023-07-29T06:33:54;5.55;;;4.00;;
13941;SDS011;7043;51.630;7.254;2023-07-29T06:36:20;4.32;;;3.25;;
13941;SDS011;7043;51.630;7.254;2023-07-29T06:38:46;4.38;;;3.22;;
13941;SDS011;7043;51.630;7.254;2023-07-29T06:41:12;4.25;;;3.08;;
13941;SDS011;7043;51.630;7.254;2023-07-29T06:43:38;3.42;;;3.13;;
13941;SDS011;7043;51.630;7.254;2023-07-29T06:46:04;3.03;;;2.70;;
13941;SDS011;7043;51.630;7.254;2023-07-29T06:48:30;2.33;;;2.05;;
13941;SDS011;7043;51.630;7.254;2023-07-29T06:50:56;2.92;;;2.47;;
13941;SDS011;7043;51.630;7.254;2023-07-29T06:53:25;4.40;;;2.40;;
13941;SDS011;7043;51.630;7.254;2023-07-29T06:55:51;2.28;;;2.00;;
13941;SDS011;7043;51.630;7.254;2023-07-29T06:58:17;2.20;;;2.00;;
13941;SDS011;7043;51.630;7.254;2023-07-29T07:00:43;4.20;;;2.30;;
13941;SDS011;7043;51.630;7.254;2023-07-29T07:03:09;5.10;;;2.17;;
13941;SDS011;7043;51.630;7.254;2023-07-29T07:05:35;2.53;;;1.90;;
13941;SDS011;7043;51.630;7.254;2023-07-29T07:08:01;3.33;;;2.22;;
13941;SDS011;7043;51.630;7.254;2023-07-29T07:10:27;3.60;;;2.00;;
13941;SDS011;7043;51.630;7.254;2023-07-29T07:12:53;3.17;;;1.80;;
13941;SDS011;7043;51.630;7.254;2023-07-29T07:15:19;2.58;;;2.10;;
13941;SDS011;7043;51.630;7.254;2023-07-29T07:17:45;2.95;;;2.35;;
13941;SDS011;7043;51.630;7.254;2023-07-29T07:20:11;2.60;;;2.10;;
13941;SDS011;7043;51.630;7.254;2023-07-29T07:22:37;2.28;;;2.08;;
13941;SDS011;7043;51.630;7.254;2023-07-29T07:25:05;3.95;;;2.20;;
13941;SDS011;7043;51.630;7.254;2023-07-29T07:27:31;2.35;;;2.15;;
13941;SDS011;7043;51.630;7.254;2023-07-29T07:29:57;2.65;;;2.05;;
13941;SDS011;7043;51.630;7.254;2023-07-29T07:32:23;2.53;;;2.00;;
13941;SDS011;7043;51.630;7.254;2023-07-29T07:34:49;2.20;;;1.80;;
13941;SDS011;7043;51.630;7.254;2023-07-29T07:37:15;3.30;;;1.75;;
13941;SDS011;7043;51.630;7.254;2023-07-29T07:39:41;2.75;;;1.88;;
13941;SDS011;7043;51.630;7.254;2023-07-29T07:42:07;3.00;;;2.10;;
13941;SDS011;7043;51.630;7.254;2023-07-29T07:44:33;3.00;;;2.05;;
13941;SDS011;7043;51.630;7.254;2023-07-29T07:46:59;3.25;;;2.22;;
13941;SDS011;7043;51.630;7.254;2023-07-29T07:49:25;3.08;;;2.20;;
13941;SDS011;7043;51.630;7.254;2023-07-29T07:51:51;2.47;;;1.83;;
13941;SDS011;7043;51.630;7.254;2023-07-29T07:54:17;4.40;;;2.22;;
13941;SDS011;7043;51.630;7.254;2023-07-29T07:56:43;3.20;;;2.35;;
13941;SDS011;7043;51.630;7.254;2023-07-29T07:59:09;4.20;;;2.45;;
13941;SDS011;7043;51.630;7.254;2023-07-29T08:01:35;4.75;;;2.58;;
13941;SDS011;7043;51.630;7.254;2023-07-29T08:04:02;3.75;;;2.58;;
13941;SDS011;7043;51.630;7.254;2023-07-29T08:06:28;2.60;;;2.40;;
13941;SDS011;7043;51.630;7.254;2023-07-29T08:08:54;4.40;;;2.50;;
13941;SDS011;7043;51.630;7.254;2023-07-29T08:11:20;3.90;;;2.20;;
13941;SDS011;7043;51.630;7.254;2023-07-29T08:13:46;4.15;;;2.80;;
13941;SDS011;7043;51.630;7.254;2023-07-29T08:16:12;3.92;;;2.70;;
13941;SDS011;7043;51.630;7.254;2023-07-29T08:18:38;4.13;;;2.90;;
13941;SDS011;7043;51.630;7.254;2023-07-29T08:21:04;3.78;;;2.45;;
13941;SDS011;7043;51.630;7.254;2023-07-29T08:23:31;4.00;;;2.90;;
13941;SDS011;7043;51.630;7.254;2023-07-29T08:25:58;3.30;;;3.00;;
13941;SDS011;7043;51.630;7.254;2023-07-29T08:28:29;3.40;;;3.10;;
13941;SDS011;7043;51.630;7.254;2023-07-29T08:30:56;5.15;;;3.10;;
13941;SDS011;7043;51.630;7.254;2023-07-29T08:33:22;3.80;;;3.40;;
13941;SDS011;7043;51.630;7.254;2023-07-29T08:35:48;3.22;;;2.90;;
13941;SDS011;7043;51.630;7.254;2023-07-29T08:38:14;3.72;;;3.00;;
13941;SDS011;7043;51.630;7.254;2023-07-29T08:40:52;4.60;;;2.95;;
13941;SDS011;7043;51.630;7.254;2023-07-29T08:43:20;4.70;;;2.92;;
13941;SDS011;7043;51.630;7.254;2023-07-29T08:45:47;2.13;;;1.92;;
13941;SDS011;7043;51.630;7.254;2023-07-29T08:48:13;1.90;;;1.70;;
13941;SDS011;7043;51.630;7.254;2023-07-29T08:50:42;3.65;;;1.73;;
13941;SDS011;7043;51.630;7.254;2023-07-29T08:53:09;2.20;;;1.80;;
13941;SDS011;7043;51.630;7.254;2023-07-29T08:55:35;1.98;;;1.50;;
13941;SDS011;7043;51.630;7.254;2023-07-29T08:58:02;2.50;;;1.90;;
13941;SDS011;7043;51.630;7.254;2023-07-29T09:00:28;2.28;;;1.85;;
13941;SDS011;7043;51.630;7.254;2023-07-29T09:02:54;2.17;;;1.80;;
13941;SDS011;7043;51.630;7.254;2023-07-29T09:05:22;2.25;;;1.80;;
13941;SDS011;7043;51.630;7.254;2023-07-29T09:07:50;1.65;;;1.52;;
13941;SDS011;7043;51.630;7.254;2023-07-29T09:10:18;2.50;;;1.30;;
13941;SDS011;7043;51.630;7.254;2023-07-29T09:12:47;1.77;;;1.30;;
13941;SDS011;7043;51.630;7.254;2023-07-29T09:15:13;1.55;;;1.30;;
13941;SDS011;7043;51.630;7.254;2023-07-29T09:17:51;1.52;;;1.10;;
13941;SDS011;7043;51.630;7.254;2023-07-29T09:20:23;1.42;;;1.10;;
13941;SDS011;7043;51.630;7.254;2023-07-29T09:22:49;1.17;;;1.08;;
13941;SDS011;7043;51.630;7.254;2023-07-29T09:25:15;1.95;;;1.15;;
13941;SDS011;7043;51.630;7.254;2023-07-29T09:27:42;1.95;;;1.17;;
13941;SDS011;7043;51.630;7.254;2023-07-29T09:30:15;2.17;;;1.13;;
13941;SDS011;7043;51.630;7.254;2023-07-29T09:32:41;2.33;;;1.67;;
13941;SDS011;7043;51.630;7.254;2023-07-29T09:35:11;1.52;;;1.40;;
13941;SDS011;7043;51.630;7.254;2023-07-29T09:37:40;2.95;;;1.20;;
13941;SDS011;7043;51.630;7.254;2023-07-29T09:40:06;1.55;;;1.17;;
13941;SDS011;7043;51.630;7.254;2023-07-29T09:42:38;2.08;;;1.40;;
13941;SDS011;7043;51.630;7.254;2023-07-29T09:45:04;2.30;;;1.30;;
13941;SDS011;7043;51.630;7.254;2023-07-29T09:47:30;1.77;;;1.38;;
13941;SDS011;7043;51.630;7.254;2023-07-29T09:49:56;2.55;;;1.40;;
13941;SDS011;7043;51.630;7.254;2023-07-29T09:52:22;0.90;;;0.88;;
13941;SDS011;7043;51.630;7.254;2023-07-29T09:54:48;1.83;;;1.30;;
13941;SDS011;7043;51.630;7.254;2023-07-29T09:57:15;2.22;;;1.30;;
13941;SDS011;7043;51.630;7.254;2023-07-29T09:59:41;2.20;;;1.52;;
13941;SDS011;7043;51.630;7.254;2023-07-29T10:02:09;1.42;;;1.33;;
13941;SDS011;7043;51.630;7.254;2023-07-29T10:04:39;1.95;;;1.75;;
13941;SDS011;7043;51.630;7.254;2023-07-29T10:07:06;2.50;;;1.98;;
13941;SDS011;7043;51.630;7.254;2023-07-29T10:09:33;2.40;;;2.05;;
13941;SDS011;7043;51.630;7.254;2023-07-29T10:11:59;2.38;;;2.05;;
13941;SDS011;7043;51.630;7.254;2023-07-29T10:14:27;2.35;;;1.80;;
13941;SDS011;7043;51.630;7.254;2023-07-29T10:16:54;1.98;;;1.88;;
13941;SDS011;7043;51.630;7.254;2023-07-29T10:19:20;1.75;;;1.65;;
13941;SDS011;7043;51.630;7.254;2023-07-29T10:21:48;2.10;;;2.00;;
13941;SDS011;7043;51.630;7.254;2023-07-29T10:24:22;2.50;;;2.30;;
13941;SDS011;7043;51.630;7.254;2023-07-29T10:26:53;3.00;;;2.70;;
13941;SDS011;7043;51.630;7.254;2023-07-29T10:29:22;2.40;;;2.20;;
13941;SDS011;7043;51.630;7.254;2023-07-29T10:31:50;2.28;;;2.00;;
13941;SDS011;7043;51.630;7.254;2023-07-29T10:34:18;5.25;;;4.85;;
13941;SDS011;7043;51.630;7.254;2023-07-29T10:36:45;5.28;;;4.78;;
13941;SDS011;7043;51.630;7.254;2023-07-29T10:39:11;3.80;;;3.50;;
13941;SDS011;7043;51.630;7.254;2023-07-29T10:41:57;3.80;;;3.50;;
13941;SDS011;7043;51.630;7.254;2023-07-29T10:47:14;2.65;;;2.40;;
13941;SDS011;7043;51.630;7.254;2023-07-29T10:49:44;2.53;;;2.30;;
13941;SDS011;7043;51.630;7.254;2023-07-29T10:52:14;3.13;;;2.60;;
13941;SDS011;7043;51.630;7.254;2023-07-29T10:54:44;4.18;;;2.80;;
13941;SDS011;7043;51.630;7.254;2023-07-29T10:57:14;4.18;;;2.83;;
13941;SDS011;7043;51.630;7.254;2023-07-29T10:59:40;2.50;;;2.30;;
13941;SDS011;7043;51.630;7.254;2023-07-29T11:02:17;4.38;;;2.65;;
13941;SDS011;7043;51.630;7.254;2023-07-29T11:04:48;3.28;;;2.60;;
13941;SDS011;7043;51.630;7.254;2023-07-29T11:15:32;2.67;;;2.47;;
13941;SDS011;7043;51.630;7.254;2023-07-29T11:20:21;2.78;;;2.58;;
13941;SDS011;7043;51.630;7.254;2023-07-29T11:22:47;2.80;;;2.60;;
13941;SDS011;7043;51.630;7.254;2023-07-29T11:25:14;3.28;;;2.97;;
13941;SDS011;7043;51.630;7.254;2023-07-29T11:27:41;3.25;;;2.95;;
13941;SDS011;7043;51.630;7.254;2023-07-29T11:30:08;3.15;;;2.70;;
13941;SDS011;7043;51.630;7.254;2023-07-29T11:32:35;4.18;;;2.45;;
13941;SDS011;7043;51.630;7.254;2023-07-29T11:35:05;1.88;;;1.77;;
13941;SDS011;7043;51.630;7.254;2023-07-29T11:37:32;3.67;;;1.90;;
13941;SDS011;7043;51.630;7.254;2023-07-29T11:39:59;1.75;;;1.65;;
13941;SDS011;7043;51.630;7.254;2023-07-29T11:42:25;1.73;;;1.63;;
13941;SDS011;7043;51.630;7.254;2023-07-29T11:44:51;2.13;;;1.75;;
13941;SDS011;7043;51.630;7.254;2023-07-29T11:47:17;1.65;;;1.55;;
13941;SDS011;7043;51.630;7.254;2023-07-29T11:49:46;2.40;;;2.00;;
13941;SDS011;7043;51.630;7.254;2023-07-29T11:52:18;2.65;;;1.70;;
13941;SDS011;7043;51.630;7.254;2023-07-29T11:54:48;1.75;;;1.20;;
13941;SDS011;7043;51.630;7.254;2023-07-29T11:57:14;1.55;;;1.40;;
13941;SDS011;7043;51.630;7.254;2023-07-29T11:59:41;1.65;;;1.38;;
13941;SDS011;7043;51.630;7.254;2023-07-29T12:02:11;1.50;;;1.40;;
13941;SDS011;7043;51.630;7.254;2023-07-29T12:04:38;1.70;;;1.60;;
13941;SDS011;7043;51.630;7.254;2023-07-29T12:07:05;1.95;;;1.77;;
13941;SDS011;7043;51.630;7.254;2023-07-29T12:09:31;1.92;;;1.73;;
13941;SDS011;7043;51.630;7.254;2023-07-29T12:11:57;2.20;;;1.98;;
13941;SDS011;7043;51.630;7.254;2023-07-29T12:14:30;1.90;;;1.80;;
13941;SDS011;7043;51.630;7.254;2023-07-29T12:16:59;2.10;;;1.70;;
13941;SDS011;7043;51.630;7.254;2023-07-29T12:19:30;2.10;;;1.90;;
13941;SDS011;7043;51.630;7.254;2023-07-29T12:21:56;1.90;;;1.77;;
13941;SDS011;7043;51.630;7.254;2023-07-29T12:24:24;2.40;;;1.65;;
13941;SDS011;7043;51.630;7.254;2023-07-29T12:26:50;3.13;;;2.05;;
13941;SDS011;7043;51.630;7.254;2023-07-29T12:29:17;2.90;;;2.00;;
13941;SDS011;7043;51.630;7.254;2023-07-29T12:31:46;2.35;;;1.80;;
13941;SDS011;7043;51.630;7.254;2023-07-29T12:34:19;3.28;;;1.92;;
13941;SDS011;7043;51.630;7.254;2023-07-29T12:36:49;2.25;;;1.70;;
13941;SDS011;7043;51.630;7.254;2023-07-29T12:39:22;1.70;;;1.60;;
13941;SDS011;7043;51.630;7.254;2023-07-29T12:41:49;2.58;;;1.88;;
13941;SDS011;7043;51.630;7.254;2023-07-29T12:44:15;3.25;;;1.80;;
13941;SDS011;7043;51.630;7.254;2023-07-29T12:46:41;2.60;;;1.60;;
13941;SDS011;7043;51.630;7.254;2023-07-29T12:49:07;1.90;;;1.67;;
13941;SDS011;7043;51.630;7.254;2023-07-29T12:51:34;1.52;;;1.40;;
13941;SDS011;7043;51.630;7.254;2023-07-29T12:54:00;2.05;;;1.60;;
13941;SDS011;7043;51.630;7.254;2023-07-29T12:56:27;1.85;;;1.63;;
13941;SDS011;7043;51.630;7.254;2023-07-29T12:58:54;2.47;;;1.70;;
13941;SDS011;7043;51.630;7.254;2023-07-29T13:01:20;4.57;;;1.73;;
13941;SDS011;7043;51.630;7.254;2023-07-29T13:03:47;2.50;;;1.77;;
13941;SDS011;7043;51.630;7.254;2023-07-29T13:06:14;1.70;;;1.58;;
13941;SDS011;7043;51.630;7.254;2023-07-29T13:08:40;1.85;;;1.60;;
13941;SDS011;7043;51.630;7.254;2023-07-29T13:11:06;1.73;;;1.60;;
13941;SDS011;7043;51.630;7.254;2023-07-29T13:13:32;2.22;;;1.90;;
13941;SDS011;7043;51.630;7.254;2023-07-29T13:15:59;2.63;;;1.73;;
13941;SDS011;7043;51.630;7.254;2023-07-29T13:18:25;4.13;;;2.33;;
13941;SDS011;7043;51.630;7.254;2023-07-29T13:20:51;2.65;;;1.98;;
13941;SDS011;7043;51.630;7.254;2023-07-29T13:23:17;2.10;;;1.90;;
13941;SDS011;7043;51.630;7.254;2023-07-29T13:25:43;2.95;;;1.92;;
13941;SDS011;7043;51.630;7.254;2023-07-29T13:28:09;1.88;;;1.73;;
13941;SDS011;7043;51.630;7.254;2023-07-29T13:30:35;3.58;;;1.90;;
13941;SDS011;7043;51.630;7.254;2023-07-29T13:33:01;1.80;;;1.58;;
13941;SDS011;7043;51.630;7.254;2023-07-29T13:35:28;1.85;;;1.70;;
13941;SDS011;7043;51.630;7.254;2023-07-29T13:37:54;2.60;;;1.63;;
13941;SDS011;7043;51.630;7.254;2023-07-29T13:40:20;2.10;;;1.90;;
13941;SDS011;7043;51.630;7.254;2023-07-29T13:42:46;2.97;;;2.00;;
13941;SDS011;7043;51.630;7.254;2023-07-29T13:45:13;2.75;;;2.15;;
13941;SDS011;7043;51.630;7.254;2023-07-29T13:47:39;1.90;;;1.75;;
13941;SDS011;7043;51.630;7.254;2023-07-29T13:50:05;2.45;;;1.90;;
13941;SDS011;7043;51.630;7.254;2023-07-29T13:52:35;2.47;;;1.95;;
13941;SDS011;7043;51.630;7.254;2023-07-29T13:55:02;2.63;;;1.73;;
13941;SDS011;7043;51.630;7.254;2023-07-29T13:57:28;2.78;;;2.13;;
13941;SDS011;7043;51.630;7.254;2023-07-29T13:59:54;2.30;;;1.98;;
13941;SDS011;7043;51.630;7.254;2023-07-29T14:02:21;3.75;;;2.10;;
13941;SDS011;7043;51.630;7.254;2023-07-29T14:04:47;2.80;;;2.10;;
13941;SDS011;7043;51.630;7.254;2023-07-29T14:07:13;2.30;;;2.10;;
13941;SDS011;7043;51.630;7.254;2023-07-29T14:09:39;3.00;;;2.10;;
13941;SDS011;7043;51.630;7.254;2023-07-29T14:12:07;2.45;;;1.90;;
13941;SDS011;7043;51.630;7.254;2023-07-29T14:14:37;4.00;;;2.50;;
13941;SDS011;7043;51.630;7.254;2023-07-29T14:17:03;5.13;;;3.40;;
13941;SDS011;7043;51.630;7.254;2023-07-29T14:19:29;3.55;;;2.97;;
13941;SDS011;7043;51.630;7.254;2023-07-29T14:21:55;3.72;;;3.00;;
13941;SDS011;7043;51.630;7.254;2023-07-29T14:24:21;6.57;;;3.80;;
13941;SDS011;7043;51.630;7.254;2023-07-29T14:26:47;8.60;;;4.43;;
13941;SDS011;7043;51.630;7.254;2023-07-29T14:29:13;5.45;;;4.32;;
13941;SDS011;7043;51.630;7.254;2023-07-29T14:31:39;6.32;;;4.68;;
13941;SDS011;7043;51.630;7.254;2023-07-29T14:34:05;8.65;;;4.63;;
13941;SDS011;7043;51.630;7.254;2023-07-29T14:36:31;6.88;;;4.53;;
13941;SDS011;7043;51.630;7.254;2023-07-29T14:38:57;4.30;;;3.88;;
13941;SDS011;7043;51.630;7.254;2023-07-29T14:41:24;4.70;;;3.78;;
13941;SDS011;7043;51.630;7.254;2023-07-29T14:43:50;6.97;;;3.97;;
13941;SDS011;7043;51.630;7.254;2023-07-29T14:46:16;5.30;;;4.20;;
13941;SDS011;7043;51.630;7.254;2023-07-29T14:48:41;5.32;;;4.40;;
13941;SDS011;7043;51.630;7.254;2023-07-29T14:51:08;4.65;;;3.75;;
13941;SDS011;7043;51.630;7.254;2023-07-29T14:53:35;4.43;;;3.70;;
13941;SDS011;7043;51.630;7.254;2023-07-29T14:56:01;3.95;;;3.60;;
13941;SDS011;7043;51.630;7.254;2023-07-29T14:58:26;3.50;;;2.35;;
13941;SDS011;7043;51.630;7.254;2023-07-29T15:00:53;3.13;;;2.10;;
13941;SDS011;7043;51.630;7.254;2023-07-29T15:03:19;3.50;;;2.05;;
13941;SDS011;7043;51.630;7.254;2023-07-29T15:05:45;2.00;;;1.80;;
13941;SDS011;7043;51.630;7.254;2023-07-29T15:08:12;2.60;;;2.22;;
13941;SDS011;7043;51.630;7.254;2023-07-29T15:10:38;3.38;;;1.75;;
13941;SDS011;7043;51.630;7.254;2023-07-29T15:13:04;2.33;;;2.13;;
13941;SDS011;7043;51.630;7.254;2023-07-29T15:15:30;2.30;;;1.90;;
13941;SDS011;7043;51.630;7.254;2023-07-29T15:17:57;4.57;;;4.07;;
13941;SDS011;7043;51.630;7.254;2023-07-29T15:20:25;1.73;;;1.48;;
13941;SDS011;7043;51.630;7.254;2023-07-29T15:22:51;1.63;;;1.52;;